Knight Air

Knight Air knights of the virtual airways


 METAR AND TAF INFORMATION
METAR FOR ENKB
ADDS - METARS form results

(1154 UTC 01 June 2020)
Data provider http://aviationweather.gov/metar/data/
 
METAR text: ENKB 011120Z 28010KT CAVOK 18/01 Q1029 RMK WIND 745FT 28010KT
Conditions at: ENKB (KRISTIANSUND/KVE, NO) observed 1120 UTC 01 June 2020
Temperature: 18.0°C (64°F)
Dewpoint: 1.0°C (34°F) [RH = 32%]
Pressure (altimeter): 30.38 inches Hg (1029.0 mb)
Winds: from the W (280 degrees) at 12 MPH (10 knots; 5.1 m/s)
Visibility: 6 or more miles (10+ km)
Ceiling: ceiling and visibility are OK
Clouds: unknown
Weather: no significant weather observed at this time

Forecast for: ENKB (KRISTIANSUND/KVE, NO)
Text: TAF ENKB 011100Z 0112/0117 30008KT CAVOK
Forecast period: 1200 to 1700 UTC 01 June 2020
Forecast type: FROM: standard forecast or significant change
Winds: from the WNW (300 degrees) at 9 MPH (8 knots; 4.1 m/s)
Visibility: 6 or more miles 10+ km)
Ceiling: unknown
Clouds: missing
Weather: NSW  (no significant weather)

 AIRPORT MAP

 RUNWAY INFORMATION
Runway 07 Runway length 6037 ft Runway width 148 ft
Runway elevation 179 ft Runway displaced threshold 197 ft Runway heading 72
Runway 25 Runway length 6037 ft Runway width 148 ft
Runway elevation 196 ft Runway displaced threshold 263 ft Runway heading 252

 AIRPORT FREQUENCIES
Type TWR Name TWR Frequency 118.3 MHZ

 AIRPORT NEAR NAVIGATION AIDS
Type VOR-DME Name Kvernberget Frequency 113800 KHZ